Time;durP1;ratioP1;P1;durP2;ratioP2;P2;SDS_P1;SDS_P2;PMS_P1;PMS_P2;Temp;Humidity;BMP_temperature;BMP_pressure;BME280_temperature;BME280_humidity;BME280_pressure;Samples;Min_cycle;Max_cycle;Signal;HPM_P1;HPM_P2
2022/04/03 00:00:45;;;;;;;5.53;3.60;;;;;;;;;;5072843;28;20438;-52
2022/04/03 00:03:12;;;;;;;4.00;3.40;;;;;;;;;;5073004;28;20202;-53
2022/04/03 00:05:38;;;;;;;4.27;3.40;;;;;;;;;;5072624;28;20442;-53
2022/04/03 00:08:05;;;;;;;3.50;3.13;;;;;;;;;;5072533;28;20445;-51
2022/04/03 00:10:31;;;;;;;4.33;3.40;;;;;;;;;;5072570;28;20430;-52
2022/04/03 00:12:57;;;;;;;4.70;3.43;;;;;;;;;;5072353;28;20446;-50
2022/04/03 00:15:23;;;;;;;6.23;3.67;;;;;;;;;;5072453;28;20495;-52
2022/04/03 00:17:49;;;;;;;4.93;3.70;;;;;;;;;;5070367;28;20577;-52
2022/04/03 00:20:16;;;;;;;4.40;3.93;;;;;;;;;;5072596;28;20462;-54
2022/04/03 00:22:47;;;;;;;4.70;3.80;;;;;;;;;;5072197;28;20696;-54
2022/04/03 00:25:14;;;;;;;5.17;3.90;;;;;;;;;;5072393;28;20504;-52
2022/04/03 00:27:40;;;;;;;4.57;4.17;;;;;;;;;;5072039;28;20484;-55
2022/04/03 00:30:06;;;;;;;6.57;3.93;;;;;;;;;;5072275;28;20495;-55
2022/04/03 00:32:32;;;;;;;6.20;4.13;;;;;;;;;;5072198;28;20438;-55
2022/04/03 00:34:58;;;;;;;4.37;3.77;;;;;;;;;;5072171;28;20450;-56
2022/04/03 00:37:26;;;;;;;4.23;3.57;;;;;;;;;;5072274;28;20895;-55
2022/04/03 00:39:52;;;;;;;4.00;3.60;;;;;;;;;;5072109;28;20286;-56
2022/04/03 00:42:18;;;;;;;4.60;3.90;;;;;;;;;;5072055;28;21033;-56
2022/04/03 00:44:44;;;;;;;3.77;3.47;;;;;;;;;;5072064;28;20199;-57
2022/04/03 00:47:12;;;;;;;3.97;3.57;;;;;;;;;;5072045;28;20446;-56
2022/04/03 00:49:38;;;;;;;3.60;3.30;;;;;;;;;;5072039;28;20658;-56
2022/04/03 00:52:04;;;;;;;5.23;3.80;;;;;;;;;;5072187;28;20521;-56
2022/04/03 00:54:32;;;;;;;4.60;3.80;;;;;;;;;;5071956;28;20920;-56
2022/04/03 00:56:58;;;;;;;3.80;3.20;;;;;;;;;;5071930;28;20535;-56
2022/04/03 00:59:24;;;;;;;6.23;3.80;;;;;;;;;;5071893;28;20527;-56
2022/04/03 01:01:50;;;;;;;6.53;3.47;;;;;;;;;;5071890;28;20947;-55
2022/04/03 01:04:16;;;;;;;5.53;3.97;;;;;;;;;;5071907;28;20978;-54
2022/04/03 01:06:42;;;;;;;4.93;3.70;;;;;;;;;;5071884;28;21018;-55
2022/04/03 01:09:09;;;;;;;3.90;3.50;;;;;;;;;;5071886;28;20464;-55
2022/04/03 01:11:38;;;;;;;3.97;3.57;;;;;;;;;;5071718;28;20442;-55
2022/04/03 01:14:05;;;;;;;4.03;3.33;;;;;;;;;;5071510;28;20434;-55
2022/04/03 01:16:31;;;;;;;3.87;3.40;;;;;;;;;;5071828;28;20448;-55
2022/04/03 01:18:57;;;;;;;4.03;3.67;;;;;;;;;;5071790;28;20513;-54
2022/04/03 01:21:23;;;;;;;3.43;3.13;;;;;;;;;;5071743;28;20913;-55
2022/04/03 01:23:50;;;;;;;4.40;3.50;;;;;;;;;;5071477;28;20450;-54
2022/04/03 01:26:17;;;;;;;3.57;3.27;;;;;;;;;;5071667;28;20196;-55
2022/04/03 01:28:44;;;;;;;3.60;3.30;;;;;;;;;;5071759;28;20421;-55
2022/04/03 01:31:10;;;;;;;3.97;3.30;;;;;;;;;;5071646;28;20513;-55
2022/04/03 01:33:36;;;;;;;3.93;3.57;;;;;;;;;;5071651;28;20438;-55
2022/04/03 01:36:02;;;;;;;3.80;3.50;;;;;;;;;;5071583;28;20464;-55
2022/04/03 01:38:28;;;;;;;3.50;3.20;;;;;;;;;;5075294;28;20481;-55
2022/04/03 01:40:54;;;;;;;4.37;3.07;;;;;;;;;;5075252;28;20797;-55
2022/04/03 01:43:21;;;;;;;4.00;3.50;;;;;;;;;;5075307;28;20196;-55
2022/04/03 01:45:47;;;;;;;4.10;3.33;;;;;;;;;;5075353;28;20676;-55
2022/04/03 01:48:13;;;;;;;7.03;4.13;;;;;;;;;;5075427;28;20472;-55
2022/04/03 01:50:39;;;;;;;5.17;4.17;;;;;;;;;;5075137;28;20564;-56
2022/04/03 01:53:06;;;;;;;4.67;3.60;;;;;;;;;;5074997;28;20717;-56
2022/04/03 01:55:32;;;;;;;4.80;3.50;;;;;;;;;;5075120;28;20513;-56
2022/04/03 01:57:58;;;;;;;4.00;3.40;;;;;;;;;;5074983;28;21066;-56
2022/04/03 02:00:26;;;;;;;3.60;3.20;;;;;;;;;;5075111;28;20506;-56
2022/04/03 02:02:52;;;;;;;4.30;3.50;;;;;;;;;;5075066;28;20277;-56
2022/04/03 02:05:18;;;;;;;3.50;3.20;;;;;;;;;;5075005;28;20437;-56
2022/04/03 02:07:44;;;;;;;3.80;3.40;;;;;;;;;;5074967;28;20480;-55
2022/04/03 02:10:12;;;;;;;6.60;3.50;;;;;;;;;;5075054;28;20753;-55
2022/04/03 02:12:38;;;;;;;3.90;3.60;;;;;;;;;;5074759;28;20227;-55
2022/04/03 02:15:08;;;;;;;3.57;3.27;;;;;;;;;;5074709;28;20422;-56
2022/04/03 02:17:35;;;;;;;4.73;3.60;;;;;;;;;;5074765;28;20830;-56
2022/04/03 02:20:01;;;;;;;3.80;3.50;;;;;;;;;;5074710;28;20537;-56
2022/04/03 02:22:27;;;;;;;3.67;3.37;;;;;;;;;;5074862;28;20438;-56
2022/04/03 02:24:53;;;;;;;4.57;3.80;;;;;;;;;;5074469;28;20460;-56
2022/04/03 02:27:19;;;;;;;3.37;3.07;;;;;;;;;;5074161;28;20908;-57
2022/04/03 02:29:45;;;;;;;3.50;3.20;;;;;;;;;;5074408;28;20437;-56
2022/04/03 02:32:11;;;;;;;4.50;3.83;;;;;;;;;;5074597;28;20434;-56
2022/04/03 02:34:39;;;;;;;4.10;3.53;;;;;;;;;;5074357;28;20433;-56
2022/04/03 02:37:05;;;;;;;4.77;3.60;;;;;;;;;;5074122;28;20490;-56
2022/04/03 02:39:31;;;;;;;4.30;3.43;;;;;;;;;;5074615;28;20433;-56
2022/04/03 02:41:57;;;;;;;4.00;3.60;;;;;;;;;;5074477;28;20207;-56
2022/04/03 02:44:23;;;;;;;3.80;3.50;;;;;;;;;;5074370;28;20456;-59
2022/04/03 02:46:49;;;;;;;6.33;3.43;;;;;;;;;;5074154;28;20455;-56
2022/04/03 02:49:15;;;;;;;4.07;3.63;;;;;;;;;;5073031;28;20442;-56
2022/04/03 02:51:42;;;;;;;4.60;4.00;;;;;;;;;;5074078;28;20217;-56
2022/04/03 02:54:08;;;;;;;3.60;3.30;;;;;;;;;;5074120;28;20449;-56
2022/04/03 02:56:34;;;;;;;4.73;4.20;;;;;;;;;;5073853;28;20536;-57
2022/04/03 02:59:00;;;;;;;5.87;4.27;;;;;;;;;;5074098;28;20569;-56
2022/04/03 03:01:26;;;;;;;5.10;3.93;;;;;;;;;;5074009;28;20199;-56
2022/04/03 03:03:52;;;;;;;8.53;4.60;;;;;;;;;;5073823;28;20449;-56
2022/04/03 03:06:19;;;;;;;5.30;4.10;;;;;;;;;;5072701;28;20376;-56
2022/04/03 03:08:46;;;;;;;5.23;4.17;;;;;;;;;;5073721;28;20792;-57
2022/04/03 03:11:12;;;;;;;5.33;4.37;;;;;;;;;;5073891;28;20444;-56
2022/04/03 03:13:38;;;;;;;5.83;4.17;;;;;;;;;;5073637;28;20477;-56
2022/04/03 03:16:05;;;;;;;5.17;4.30;;;;;;;;;;5073576;28;20426;-55
2022/04/03 03:18:31;;;;;;;4.30;3.90;;;;;;;;;;5073555;28;20473;-56
2022/04/03 03:20:57;;;;;;;4.43;4.03;;;;;;;;;;5073801;28;20912;-56
2022/04/03 03:23:24;;;;;;;4.23;3.83;;;;;;;;;;5073273;28;21000;-56
2022/04/03 03:25:51;;;;;;;4.90;4.27;;;;;;;;;;5073442;28;20520;-56
2022/04/03 03:28:17;;;;;;;4.23;3.70;;;;;;;;;;5073218;28;20468;-56
2022/04/03 03:30:43;;;;;;;4.47;4.07;;;;;;;;;;5073421;28;20477;-56
2022/04/03 03:33:09;;;;;;;3.80;3.50;;;;;;;;;;5073374;28;20208;-56
2022/04/03 03:35:35;;;;;;;3.90;3.60;;;;;;;;;;5073236;28;20434;-56
2022/04/03 03:38:01;;;;;;;4.80;3.90;;;;;;;;;;5072915;28;20477;-56
2022/04/03 03:40:28;;;;;;;4.57;3.87;;;;;;;;;;5073322;28;20244;-56
2022/04/03 03:42:56;;;;;;;4.73;3.97;;;;;;;;;;5072912;28;20430;-56
2022/04/03 03:45:22;;;;;;;4.27;3.83;;;;;;;;;;5073031;28;20441;-56
2022/04/03 03:47:48;;;;;;;4.57;4.10;;;;;;;;;;5072823;28;20881;-56
2022/04/03 03:50:15;;;;;;;4.10;3.50;;;;;;;;;;5073060;28;20562;-56
2022/04/03 03:52:41;;;;;;;4.80;4.03;;;;;;;;;;5072919;28;20477;-55
2022/04/03 03:55:08;;;;;;;4.97;4.03;;;;;;;;;;5072774;28;20517;-56
2022/04/03 03:57:34;;;;;;;3.87;3.47;;;;;;;;;;5072581;28;20514;-56
2022/04/03 04:00:02;;;;;;;6.90;4.03;;;;;;;;;;5072515;28;20458;-56
2022/04/03 04:02:28;;;;;;;4.50;4.07;;;;;;;;;;5072878;28;20446;-57
2022/04/03 04:04:54;;;;;;;4.70;4.30;;;;;;;;;;5072587;28;20521;-56
2022/04/03 04:07:20;;;;;;;6.07;4.70;;;;;;;;;;5072565;28;20480;-56
2022/04/03 04:09:46;;;;;;;5.77;4.50;;;;;;;;;;5072593;28;20422;-56
2022/04/03 04:12:12;;;;;;;6.30;4.87;;;;;;;;;;5072656;28;20231;-56
2022/04/03 04:14:41;;;;;;;5.93;4.50;;;;;;;;;;5072358;28;20227;-56
2022/04/03 04:17:08;;;;;;;4.37;3.97;;;;;;;;;;5072432;28;21047;-56
2022/04/03 04:19:34;;;;;;;5.00;4.50;;;;;;;;;;5072477;28;20857;-56
2022/04/03 04:22:01;;;;;;;5.37;4.87;;;;;;;;;;5072365;28;20546;-56
2022/04/03 04:24:27;;;;;;;6.27;4.80;;;;;;;;;;5072462;28;20480;-56
2022/04/03 04:26:53;;;;;;;5.13;4.67;;;;;;;;;;5071894;28;20633;-56
2022/04/03 04:29:19;;;;;;;5.40;4.90;;;;;;;;;;5072312;28;20433;-56
2022/04/03 04:31:45;;;;;;;6.73;4.93;;;;;;;;;;5072487;28;20441;-56
2022/04/03 04:34:13;;;;;;;5.40;4.83;;;;;;;;;;5072445;28;20196;-56
2022/04/03 04:36:39;;;;;;;5.80;4.77;;;;;;;;;;5072197;28;20294;-56
2022/04/03 04:39:06;;;;;;;6.73;5.00;;;;;;;;;;5072200;28;20572;-56
2022/04/03 04:41:32;;;;;;;6.77;5.10;;;;;;;;;;5072290;28;20199;-57
2022/04/03 04:43:58;;;;;;;5.77;5.03;;;;;;;;;;5072089;28;20441;-56
2022/04/03 04:46:24;;;;;;;6.20;5.00;;;;;;;;;;5072209;28;20198;-56
2022/04/03 04:48:50;;;;;;;5.60;4.70;;;;;;;;;;5072103;28;20187;-56
2022/04/03 04:51:17;;;;;;;5.70;5.20;;;;;;;;;;5072190;28;20924;-56
2022/04/03 04:53:43;;;;;;;5.97;4.83;;;;;;;;;;5072197;28;20442;-57
2022/04/03 04:56:12;;;;;;;5.87;4.90;;;;;;;;;;5072157;28;20438;-56
2022/04/03 04:58:38;;;;;;;6.33;5.73;;;;;;;;;;5071547;28;20237;-56
2022/04/03 05:01:04;;;;;;;5.93;5.30;;;;;;;;;;5072082;28;20434;-56
2022/04/03 05:03:30;;;;;;;6.57;4.70;;;;;;;;;;5072214;28;20666;-56
2022/04/03 05:05:57;;;;;;;5.70;4.73;;;;;;;;;;5071767;28;20504;-56
2022/04/03 05:08:24;;;;;;;5.87;5.30;;;;;;;;;;5070134;28;20422;-56
2022/04/03 05:10:50;;;;;;;6.20;5.17;;;;;;;;;;5071821;28;20436;-57
2022/04/03 05:13:16;;;;;;;6.07;5.43;;;;;;;;;;5075360;28;20491;-57
2022/04/03 05:15:42;;;;;;;5.77;5.13;;;;;;;;;;5075922;28;20460;-57
2022/04/03 05:18:08;;;;;;;6.37;5.10;;;;;;;;;;5075730;28;20830;-56
2022/04/03 05:20:34;;;;;;;6.00;5.40;;;;;;;;;;5075892;28;20196;-56
2022/04/03 05:23:00;;;;;;;6.33;5.20;;;;;;;;;;5075794;28;20788;-57
2022/04/03 05:25:28;;;;;;;5.30;4.80;;;;;;;;;;5075690;28;20971;-57
2022/04/03 05:27:54;;;;;;;6.77;5.67;;;;;;;;;;5075474;28;20880;-57
2022/04/03 05:30:20;;;;;;;5.50;5.00;;;;;;;;;;5075641;28;20468;-57
2022/04/03 05:32:46;;;;;;;5.73;5.17;;;;;;;;;;5075441;28;20898;-57
2022/04/03 05:35:13;;;;;;;5.83;5.23;;;;;;;;;;5075693;28;20514;-56
2022/04/03 05:37:39;;;;;;;7.10;5.60;;;;;;;;;;5075330;28;20586;-56
2022/04/03 05:40:05;;;;;;;7.87;5.40;;;;;;;;;;5075284;28;20924;-56
2022/04/03 05:42:34;;;;;;;7.53;5.97;;;;;;;;;;5075347;28;20434;-56
2022/04/03 05:45:00;;;;;;;5.93;5.30;;;;;;;;;;5075242;28;20445;-57
2022/04/03 05:47:26;;;;;;;6.87;5.27;;;;;;;;;;5075367;28;20433;-56
2022/04/03 05:49:52;;;;;;;6.63;5.13;;;;;;;;;;5074721;28;20959;-56
2022/04/03 05:52:18;;;;;;;8.07;5.67;;;;;;;;;;5075209;28;20207;-57
2022/04/03 05:54:44;;;;;;;5.97;5.27;;;;;;;;;;5075055;28;20235;-56
2022/04/03 05:57:10;;;;;;;5.77;5.27;;;;;;;;;;5075125;28;20441;-56
2022/04/03 05:59:38;;;;;;;5.53;4.93;;;;;;;;;;5075054;28;20426;-57
2022/04/03 06:02:05;;;;;;;7.40;5.37;;;;;;;;;;5074900;28;20481;-57
2022/04/03 06:04:32;;;;;;;7.07;5.73;;;;;;;;;;5075063;28;20989;-57
2022/04/03 06:06:59;;;;;;;5.97;5.43;;;;;;;;;;5075068;28;20438;-57
2022/04/03 06:09:25;;;;;;;7.70;5.57;;;;;;;;;;5074911;28;20434;-55
2022/04/03 06:11:52;;;;;;;7.73;5.53;;;;;;;;;;5074689;28;20796;-57
2022/04/03 06:14:18;;;;;;;6.43;5.60;;;;;;;;;;5074857;28;20987;-56
2022/04/03 06:16:45;;;;;;;6.20;5.60;;;;;;;;;;5074878;28;20851;-56
2022/04/03 06:19:11;;;;;;;7.20;5.10;;;;;;;;;;5074276;28;20572;-56
2022/04/03 06:21:37;;;;;;;6.73;5.47;;;;;;;;;;5074727;28;20794;-56
2022/04/03 06:24:04;;;;;;;5.83;5.10;;;;;;;;;;5074012;28;20465;-57
2022/04/03 06:26:30;;;;;;;5.90;5.30;;;;;;;;;;5074404;28;20231;-57
2022/04/03 06:28:59;;;;;;;8.50;5.63;;;;;;;;;;5074434;28;20430;-57
2022/04/03 06:31:28;;;;;;;7.53;4.83;;;;;;;;;;5074582;28;20432;-57
2022/04/03 06:33:58;;;;;;;7.33;4.70;;;;;;;;;;5074110;28;20532;-57
2022/04/03 06:36:24;;;;;;;6.87;4.73;;;;;;;;;;5074354;28;20474;-57
2022/04/03 06:38:50;;;;;;;5.23;4.50;;;;;;;;;;5074131;28;20502;-57
2022/04/03 06:41:17;;;;;;;6.60;4.90;;;;;;;;;;5074554;28;20279;-57
2022/04/03 06:43:43;;;;;;;5.53;5.00;;;;;;;;;;5074234;28;20983;-56
2022/04/03 06:46:09;;;;;;;4.77;4.33;;;;;;;;;;5074103;28;20548;-58
2022/04/03 06:48:35;;;;;;;5.40;4.40;;;;;;;;;;5074018;28;20476;-57
2022/04/03 06:51:03;;;;;;;4.80;4.30;;;;;;;;;;5074110;28;20790;-57
2022/04/03 06:53:29;;;;;;;5.47;4.40;;;;;;;;;;5074085;28;20450;-58
2022/04/03 06:55:55;;;;;;;4.70;4.30;;;;;;;;;;5073962;28;20437;-57
2022/04/03 06:58:24;;;;;;;5.57;4.10;;;;;;;;;;5073872;28;20519;-57
2022/04/03 07:00:50;;;;;;;5.83;4.20;;;;;;;;;;5074085;28;20223;-57
2022/04/03 07:03:16;;;;;;;5.03;4.10;;;;;;;;;;5074058;28;20465;-56
2022/04/03 07:05:42;;;;;;;4.70;4.13;;;;;;;;;;5073536;28;20598;-56
2022/04/03 07:08:09;;;;;;;4.13;3.70;;;;;;;;;;5074023;28;20449;-56
2022/04/03 07:10:35;;;;;;;4.30;3.77;;;;;;;;;;5073770;28;20457;-56
2022/04/03 07:13:02;;;;;;;4.50;3.30;;;;;;;;;;5073723;28;20434;-56
2022/04/03 07:15:28;;;;;;;4.57;3.47;;;;;;;;;;5073816;28;20432;-55
2022/04/03 07:17:54;;;;;;;3.50;3.20;;;;;;;;;;5073526;28;20481;-54
2022/04/03 07:20:20;;;;;;;4.27;3.17;;;;;;;;;;5073654;28;20195;-58
2022/04/03 07:22:46;;;;;;;5.40;3.20;;;;;;;;;;5073731;28;20203;-53
2022/04/03 07:25:14;;;;;;;4.90;3.10;;;;;;;;;;5073269;28;20445;-53
2022/04/03 07:27:40;;;;;;;3.27;2.80;;;;;;;;;;5072755;28;20539;-57
2022/04/03 07:30:08;;;;;;;4.60;3.00;;;;;;;;;;5072877;28;21589;-57
2022/04/03 07:32:34;;;;;;;4.50;2.90;;;;;;;;;;5073263;28;20434;-55
2022/04/03 07:35:00;;;;;;;5.10;2.40;;;;;;;;;;5072447;28;20805;-55
2022/04/03 07:37:26;;;;;;;4.53;2.63;;;;;;;;;;5073066;28;20219;-54
2022/04/03 07:39:52;;;;;;;4.67;2.20;;;;;;;;;;5073158;28;20196;-59
2022/04/03 07:42:20;;;;;;;3.53;2.60;;;;;;;;;;5072943;28;20503;-55
2022/04/03 07:44:46;;;;;;;3.30;2.53;;;;;;;;;;5073015;28;20861;-54
2022/04/03 07:47:12;;;;;;;3.73;2.33;;;;;;;;;;5073036;28;20933;-55
2022/04/03 07:49:38;;;;;;;3.37;2.40;;;;;;;;;;5072986;28;20192;-54
2022/04/03 07:52:05;;;;;;;4.33;2.20;;;;;;;;;;5072814;28;20442;-55
2022/04/03 07:54:31;;;;;;;3.53;2.20;;;;;;;;;;5072960;28;20495;-54
2022/04/03 07:56:57;;;;;;;2.07;1.87;;;;;;;;;;5072675;28;20452;-54
2022/04/03 07:59:24;;;;;;;2.23;2.03;;;;;;;;;;5072780;28;21160;-54
2022/04/03 08:01:50;;;;;;;4.63;2.20;;;;;;;;;;5072642;28;20203;-54
2022/04/03 08:04:16;;;;;;;2.40;2.20;;;;;;;;;;5072691;28;20813;-55
2022/04/03 08:06:43;;;;;;;4.77;2.43;;;;;;;;;;5072731;28;20460;-54
2022/04/03 08:09:11;;;;;;;2.80;2.20;;;;;;;;;;5072437;28;20534;-54
2022/04/03 08:11:40;;;;;;;3.30;2.20;;;;;;;;;;5072221;28;20966;-54
2022/04/03 08:14:06;;;;;;;4.20;2.03;;;;;;;;;;5072309;28;20442;-55
2022/04/03 08:16:34;;;;;;;3.13;2.10;;;;;;;;;;5072434;28;20962;-54
2022/04/03 08:19:03;;;;;;;2.23;1.93;;;;;;;;;;5072251;28;20242;-54
2022/04/03 08:21:29;;;;;;;2.13;1.77;;;;;;;;;;5072144;28;20479;-53
2022/04/03 08:23:55;;;;;;;2.97;2.07;;;;;;;;;;5071926;28;20557;-54
2022/04/03 08:26:25;;;;;;;4.73;2.10;;;;;;;;;;5071846;28;20988;-55
2022/04/03 08:28:51;;;;;;;2.63;1.97;;;;;;;;;;5072197;28;20641;-54
2022/04/03 08:31:18;;;;;;;2.37;2.00;;;;;;;;;;5072388;28;20487;-55
2022/04/03 08:33:47;;;;;;;2.07;1.87;;;;;;;;;;5072099;28;20693;-54
2022/04/03 08:36:16;;;;;;;3.07;1.70;;;;;;;;;;5072180;28;20444;-54
2022/04/03 08:38:42;;;;;;;4.30;1.90;;;;;;;;;;5071972;28;20254;-54
2022/04/03 08:41:09;;;;;;;3.03;2.00;;;;;;;;;;5072062;28;20695;-55
2022/04/03 08:43:35;;;;;;;2.60;1.77;;;;;;;;;;5072180;28;20195;-56
2022/04/03 08:46:01;;;;;;;2.67;2.00;;;;;;;;;;5071394;28;20196;-55
2022/04/03 08:48:30;;;;;;;2.20;2.00;;;;;;;;;;5071959;28;20309;-55
2022/04/03 08:50:59;;;;;;;1.90;1.70;;;;;;;;;;5072046;28;20199;-54
2022/04/03 08:53:26;;;;;;;3.47;1.77;;;;;;;;;;5072122;28;20200;-54
2022/04/03 08:55:52;;;;;;;2.23;2.03;;;;;;;;;;5071972;28;20199;-55
2022/04/03 08:58:20;;;;;;;4.00;2.10;;;;;;;;;;5072034;28;20277;-55
2022/04/03 09:00:46;;;;;;;3.23;1.80;;;;;;;;;;5071857;28;20196;-55
2022/04/03 09:03:13;;;;;;;3.77;1.70;;;;;;;;;;5072019;28;20672;-56
2022/04/03 09:05:39;;;;;;;2.77;1.67;;;;;;;;;;5071994;28;20200;-55
2022/04/03 09:08:07;;;;;;;5.17;1.77;;;;;;;;;;5071642;28;20646;-55
2022/04/03 09:10:34;;;;;;;2.67;1.77;;;;;;;;;;5071814;28;20196;-55
2022/04/03 09:13:00;;;;;;;3.13;1.80;;;;;;;;;;5071415;28;20327;-55
2022/04/03 09:15:27;;;;;;;1.60;1.50;;;;;;;;;;5071789;28;20736;-55
2022/04/03 09:17:54;;;;;;;1.93;1.43;;;;;;;;;;5071286;28;20288;-55
2022/04/03 09:20:22;;;;;;;3.57;1.60;;;;;;;;;;5071781;28;20211;-55
2022/04/03 09:22:49;;;;;;;3.77;1.63;;;;;;;;;;5071677;28;20653;-54
2022/04/03 09:25:23;;;;;;;1.97;1.53;;;;;;;;;;5071611;28;20220;-55
2022/04/03 09:27:51;;;;;;;2.07;1.53;;;;;;;;;;5071518;28;20223;-55
2022/04/03 09:30:18;;;;;;;2.83;1.77;;;;;;;;;;5071919;28;20204;-55
2022/04/03 09:32:47;;;;;;;4.10;1.67;;;;;;;;;;5071690;28;20237;-55
2022/04/03 09:35:13;;;;;;;2.00;1.60;;;;;;;;;;5071758;28;20279;-56
2022/04/03 09:37:39;;;;;;;3.50;2.30;;;;;;;;;;5071357;28;20227;-55
2022/04/03 09:40:06;;;;;;;2.83;1.53;;;;;;;;;;5071265;28;20241;-55
2022/04/03 09:42:33;;;;;;;2.53;1.50;;;;;;;;;;5071457;28;20445;-55
2022/04/03 09:44:59;;;;;;;2.80;1.70;;;;;;;;;;5071139;28;20751;-55
2022/04/03 09:47:30;;;;;;;2.27;1.50;;;;;;;;;;5071589;28;20191;-56
2022/04/03 09:49:56;;;;;;;3.57;1.77;;;;;;;;;;5071484;28;20180;-56
2022/04/03 09:52:33;;;;;;;3.70;2.13;;;;;;;;;;5071592;28;20611;-55
2022/04/03 09:54:59;;;;;;;3.77;1.90;;;;;;;;;;5071427;28;20187;-55
2022/04/03 09:57:25;;;;;;;2.60;1.73;;;;;;;;;;5071540;28;20239;-54
2022/04/03 09:59:53;;;;;;;2.40;1.70;;;;;;;;;;5074857;28;20224;-55
2022/04/03 10:02:19;;;;;;;2.33;1.60;;;;;;;;;;5075251;28;20203;-55
2022/04/03 10:04:45;;;;;;;1.70;1.47;;;;;;;;;;5075278;28;20208;-54
2022/04/03 10:07:13;;;;;;;3.10;1.70;;;;;;;;;;5075055;28;20203;-54
2022/04/03 10:09:40;;;;;;;3.27;1.77;;;;;;;;;;5074798;28;20195;-54
2022/04/03 10:12:09;;;;;;;2.67;1.77;;;;;;;;;;5074407;28;20261;-56
2022/04/03 10:14:36;;;;;;;3.23;1.70;;;;;;;;;;5074604;28;20195;-55
2022/04/03 10:17:03;;;;;;;1.90;1.60;;;;;;;;;;5074770;28;20256;-54
2022/04/03 10:19:29;;;;;;;1.93;1.47;;;;;;;;;;5074844;28;20265;-54
2022/04/03 10:21:56;;;;;;;3.97;1.60;;;;;;;;;;5074404;28;20231;-55
2022/04/03 10:24:26;;;;;;;4.73;1.40;;;;;;;;;;5074779;28;20214;-56
2022/04/03 10:26:57;;;;;;;1.97;1.50;;;;;;;;;;5074208;28;20243;-56
2022/04/03 10:29:23;;;;;;;1.70;1.40;;;;;;;;;;5074866;28;20199;-54
2022/04/03 10:31:58;;;;;;;2.10;1.40;;;;;;;;;;5074467;28;20276;-54
2022/04/03 10:34:26;;;;;;;1.60;1.33;;;;;;;;;;5074287;28;20202;-55
2022/04/03 10:36:52;;;;;;;3.13;1.73;;;;;;;;;;5074365;28;20209;-56
2022/04/03 10:39:23;;;;;;;1.97;1.20;;;;;;;;;;5074253;28;20686;-55
2022/04/03 10:41:49;;;;;;;1.63;1.50;;;;;;;;;;5074043;28;20661;-56
2022/04/03 10:44:15;;;;;;;4.80;1.60;;;;;;;;;;5073997;28;20202;-55
2022/04/03 10:47:00;;;;;;;2.33;1.37;;;;;;;;;;5074010;28;20607;-54
2022/04/03 10:49:30;;;;;;;2.80;1.40;;;;;;;;;;5073915;28;20187;-55
2022/04/03 10:51:57;;;;;;;2.77;1.40;;;;;;;;;;5073691;28;20211;-56
2022/04/03 10:54:30;;;;;;;2.13;1.30;;;;;;;;;;5073798;28;20199;-55
2022/04/03 10:57:11;;;;;;;2.70;1.60;;;;;;;;;;5074143;28;20278;-56
2022/04/03 10:59:37;;;;;;;3.63;1.60;;;;;;;;;;5073806;28;20237;-54
2022/04/03 11:02:13;;;;;;;2.20;1.30;;;;;;;;;;5073837;28;20195;-56
2022/04/03 11:04:40;;;;;;;2.93;1.50;;;;;;;;;;5074007;28;20248;-54
2022/04/03 11:07:12;;;;;;;1.90;1.33;;;;;;;;;;5073411;28;20301;-56
2022/04/03 11:09:41;;;;;;;6.23;3.77;;;;;;;;;;5072914;28;20196;-55
2022/04/03 11:12:07;;;;;;;5.03;2.03;;;;;;;;;;5073582;28;20207;-56
2022/04/03 11:14:53;;;;;;;3.73;1.90;;;;;;;;;;5073672;28;20203;-58
2022/04/03 11:17:19;;;;;;;2.73;1.67;;;;;;;;;;5073740;28;20282;-57
2022/04/03 11:19:48;;;;;;;3.57;1.60;;;;;;;;;;5073364;28;20265;-57
2022/04/03 11:22:15;;;;;;;4.00;2.30;;;;;;;;;;5073650;28;20204;-56
2022/04/03 11:24:41;;;;;;;3.77;2.83;;;;;;;;;;5073518;28;20226;-56
2022/04/03 11:27:08;;;;;;;3.87;2.60;;;;;;;;;;5073146;28;20236;-56
2022/04/03 11:29:34;;;;;;;3.37;2.30;;;;;;;;;;5073321;28;20195;-57
2022/04/03 11:32:02;;;;;;;3.13;2.70;;;;;;;;;;5073325;28;20438;-55
2022/04/03 11:34:29;;;;;;;4.83;3.10;;;;;;;;;;5073438;28;20442;-57
2022/04/03 11:36:58;;;;;;;5.07;2.80;;;;;;;;;;5073100;28;20434;-57
2022/04/03 11:39:30;;;;;;;4.17;2.40;;;;;;;;;;5073140;28;20889;-57
2022/04/03 11:41:57;;;;;;;3.03;1.90;;;;;;;;;;5072945;28;20444;-57
2022/04/03 11:44:24;;;;;;;3.40;2.40;;;;;;;;;;5072972;28;20457;-55
2022/04/03 11:46:51;;;;;;;3.97;2.17;;;;;;;;;;5073002;28;20524;-56
2022/04/03 11:49:17;;;;;;;3.23;1.87;;;;;;;;;;5073071;28;20525;-57
2022/04/03 11:51:44;;;;;;;2.20;2.00;;;;;;;;;;5072858;28;20204;-58
2022/04/03 11:54:14;;;;;;;3.57;1.80;;;;;;;;;;5072752;28;20205;-57
2022/04/03 11:56:40;;;;;;;2.53;2.20;;;;;;;;;;5072612;28;20294;-57
2022/04/03 11:59:08;;;;;;;3.10;2.20;;;;;;;;;;5072560;28;20310;-56
2022/04/03 12:01:35;;;;;;;3.07;1.83;;;;;;;;;;5072741;28;20600;-57
2022/04/03 12:04:02;;;;;;;3.37;2.00;;;;;;;;;;5072746;28;20233;-58
2022/04/03 12:06:30;;;;;;;2.60;1.80;;;;;;;;;;5072911;28;20196;-56
2022/04/03 12:08:56;;;;;;;2.97;1.80;;;;;;;;;;5072549;28;20243;-56
2022/04/03 12:11:24;;;;;;;2.00;1.50;;;;;;;;;;5072391;28;20192;-56
2022/04/03 12:13:51;;;;;;;2.27;1.60;;;;;;;;;;5072077;28;20626;-55
2022/04/03 12:16:18;;;;;;;2.40;1.80;;;;;;;;;;5072421;28;20654;-56
2022/04/03 12:18:48;;;;;;;2.37;1.70;;;;;;;;;;5072336;28;20219;-56
2022/04/03 12:21:14;;;;;;;3.03;1.67;;;;;;;;;;5072700;28;20604;-56
2022/04/03 12:24:01;;;;;;;2.43;1.60;;;;;;;;;;5072140;28;20219;-55
2022/04/03 12:26:28;;;;;;;2.83;1.63;;;;;;;;;;5071976;28;20730;-56
2022/04/03 12:28:56;;;;;;;3.37;1.57;;;;;;;;;;5072078;28;20200;-56
2022/04/03 12:31:25;;;;;;;2.20;1.50;;;;;;;;;;5072319;28;20191;-56
2022/04/03 12:33:52;;;;;;;1.67;1.57;;;;;;;;;;5072268;28;20210;-57
2022/04/03 12:36:18;;;;;;;2.30;1.50;;;;;;;;;;5072137;28;20208;-55
2022/04/03 12:38:48;;;;;;;3.67;1.60;;;;;;;;;;5071851;28;20633;-55
2022/04/03 12:41:14;;;;;;;3.47;1.50;;;;;;;;;;5071806;28;20279;-55
2022/04/03 12:43:45;;;;;;;2.87;1.67;;;;;;;;;;5072156;28;20204;-55
2022/04/03 12:46:11;;;;;;;1.53;1.43;;;;;;;;;;5071991;28;20210;-55
2022/04/03 12:48:38;;;;;;;2.97;1.77;;;;;;;;;;5071754;28;20192;-55
2022/04/03 12:51:08;;;;;;;2.63;1.40;;;;;;;;;;5072002;28;20202;-56
2022/04/03 12:53:34;;;;;;;2.33;1.77;;;;;;;;;;5071996;28;20203;-55
2022/04/03 12:56:04;;;;;;;2.73;1.77;;;;;;;;;;5071985;28;20253;-55
2022/04/03 12:58:40;;;;;;;1.27;1.17;;;;;;;;;;5070274;28;20223;-56
2022/04/03 13:01:15;;;;;;;1.43;1.33;;;;;;;;;;5071780;28;20210;-55
2022/04/03 13:03:42;;;;;;;1.67;1.30;;;;;;;;;;5071788;28;20728;-56
2022/04/03 13:06:09;;;;;;;1.10;1.00;;;;;;;;;;5071801;28;20218;-54
2022/04/03 13:08:42;;;;;;;0.80;0.73;;;;;;;;;;5071833;28;20198;-55
2022/04/03 13:11:08;;;;;;;1.17;1.07;;;;;;;;;;5071498;28;20191;-55
2022/04/03 13:13:35;;;;;;;2.50;1.07;;;;;;;;;;5071707;28;20214;-55
2022/04/03 13:16:01;;;;;;;1.23;0.90;;;;;;;;;;5071727;28;20533;-56
2022/04/03 13:18:29;;;;;;;1.50;1.27;;;;;;;;;;5071778;28;20232;-55
2022/04/03 13:20:56;;;;;;;1.17;1.07;;;;;;;;;;5071773;28;20206;-55
2022/04/03 13:23:22;;;;;;;1.50;1.10;;;;;;;;;;5071867;28;20274;-55
2022/04/03 13:25:49;;;;;;;2.70;1.03;;;;;;;;;;5071671;28;20219;-55
2022/04/03 13:28:16;;;;;;;1.47;0.90;;;;;;;;;;5071491;28;20323;-55
2022/04/03 13:30:42;;;;;;;1.57;1.00;;;;;;;;;;5071831;28;20210;-55
2022/04/03 13:33:09;;;;;;;4.57;1.20;;;;;;;;;;5073185;28;20195;-56
2022/04/03 13:35:38;;;;;;;1.67;1.40;;;;;;;;;;5075425;28;20206;-56
2022/04/03 13:38:04;;;;;;;1.33;1.10;;;;;;;;;;5075189;28;20227;-54
2022/04/03 13:40:30;;;;;;;1.70;1.50;;;;;;;;;;5075637;28;20206;-54
2022/04/03 13:43:00;;;;;;;2.67;2.20;;;;;;;;;;5075295;28;20195;-56
2022/04/03 13:48:38;;;;;;;2.50;1.60;;;;;;;;;;5072460;28;20195;-55
2022/04/03 13:51:06;;;;;;;2.00;1.20;;;;;;;;;;5072668;28;20199;-55
2022/04/03 13:53:32;;;;;;;1.43;1.20;;;;;;;;;;5073393;28;20204;-55
2022/04/03 13:55:59;;;;;;;1.50;1.30;;;;;;;;;;5074825;28;20668;-55
2022/04/03 13:58:26;;;;;;;2.13;1.40;;;;;;;;;;5075001;28;20223;-55
2022/04/03 14:00:52;;;;;;;1.80;1.20;;;;;;;;;;5073005;28;20204;-55
2022/04/03 14:03:20;;;;;;;3.50;1.70;;;;;;;;;;5074684;28;20205;-55
2022/04/03 14:05:46;;;;;;;1.40;1.10;;;;;;;;;;5074696;28;20200;-55
2022/04/03 14:08:16;;;;;;;0.93;0.93;;;;;;;;;;5074548;28;20191;-55
2022/04/03 14:10:42;;;;;;;1.93;1.47;;;;;;;;;;5074493;28;20218;-56
2022/04/03 14:13:08;;;;;;;1.20;1.10;;;;;;;;;;5074566;28;20205;-55
2022/04/03 14:15:34;;;;;;;1.47;1.33;;;;;;;;;;5074607;28;20246;-55
2022/04/03 14:18:01;;;;;;;1.43;1.33;;;;;;;;;;5074377;28;20650;-55
2022/04/03 14:20:27;;;;;;;1.33;1.23;;;;;;;;;;5074456;28;20274;-55
2022/04/03 14:22:53;;;;;;;1.50;1.40;;;;;;;;;;5074276;28;20275;-55
2022/04/03 14:25:20;;;;;;;1.37;1.20;;;;;;;;;;5074334;28;20278;-55
2022/04/03 14:27:46;;;;;;;1.27;1.17;;;;;;;;;;5074159;28;20297;-56
2022/04/03 14:30:13;;;;;;;1.43;1.10;;;;;;;;;;5074341;28;20199;-55
2022/04/03 14:32:46;;;;;;;1.97;1.40;;;;;;;;;;5074295;28;20210;-57
2022/04/03 14:35:13;;;;;;;2.03;1.20;;;;;;;;;;5073912;28;20253;-55
2022/04/03 14:37:40;;;;;;;1.50;1.17;;;;;;;;;;5074025;28;20199;-57
2022/04/03 14:40:06;;;;;;;1.67;1.30;;;;;;;;;;5073829;28;20605;-57
2022/04/03 14:42:34;;;;;;;1.70;1.10;;;;;;;;;;5074027;28;20256;-56
2022/04/03 14:45:00;;;;;;;2.30;1.60;;;;;;;;;;5073862;28;20203;-57